createdAt,value
2023-05-20T00:02:03.814Z,98436.19
2023-05-20T00:04:08.985Z,98442.28
2023-05-20T00:06:14.129Z,98431.06
2023-05-20T00:08:19.012Z,98437.97
2023-05-20T00:10:24.108Z,98432.66
2023-05-20T00:12:31.981Z,98432.53
2023-05-20T00:14:36.932Z,98428.31
2023-05-20T00:16:41.995Z,98425.41
2023-05-20T00:18:47.039Z,98426.00
2023-05-20T00:20:52.131Z,98420.63
2023-05-20T00:22:57.040Z,98421.38
2023-05-20T00:25:02.151Z,98424.66
2023-05-20T00:27:07.547Z,98420.25
2023-05-20T00:29:14.832Z,98411.81
2023-05-20T00:31:19.851Z,98411.97
2023-05-20T00:33:24.781Z,98411.97
2023-05-20T00:35:29.891Z,98406.72
2023-05-20T00:37:35.030Z,98419.31
2023-05-20T00:39:40.342Z,98413.31
2023-05-20T00:41:45.517Z,98409.41
2023-05-20T00:43:50.234Z,98412.38
2023-05-20T00:45:58.718Z,98424.75
2023-05-20T00:48:04.406Z,98414.16
2023-05-20T00:50:11.949Z,98428.03
2023-05-20T00:52:18.553Z,98424.56
2023-05-20T00:54:24.297Z,98414.16
2023-05-20T00:56:30.007Z,98415.75
2023-05-20T00:58:36.999Z,98422.69
2023-05-20T01:00:43.223Z,98419.91
2023-05-20T01:02:51.196Z,98419.13
2023-05-20T01:04:57.030Z,98414.72
2023-05-20T01:07:05.394Z,98410.78
2023-05-20T01:09:10.548Z,98410.22
2023-05-20T01:11:22.450Z,98413.59
2023-05-20T01:13:34.161Z,98412.94
2023-05-20T01:15:42.690Z,98405.81
2023-05-20T01:17:54.594Z,98405.63
2023-05-20T01:20:02.590Z,98405.91
2023-05-20T01:22:12.717Z,98402.56
2023-05-20T01:24:20.551Z,98397.94
2023-05-20T01:26:27.370Z,98398.78
2023-05-20T01:28:32.487Z,98397.75
2023-05-20T01:30:44.580Z,98394.38
2023-05-20T01:32:55.812Z,98397.28
2023-05-20T01:35:02.402Z,98399.63
2023-05-20T01:37:08.533Z,98395.22
2023-05-20T01:39:14.097Z,98400.66
2023-05-20T01:41:22.195Z,98392.69
2023-05-20T01:43:28.885Z,98392.59
2023-05-20T01:45:34.828Z,98402.72
2023-05-20T01:47:40.321Z,98398.13
2023-05-20T01:49:46.387Z,98394.75
2023-05-20T01:51:51.493Z,98392.22
2023-05-20T01:53:56.645Z,98391.72
2023-05-20T01:56:01.359Z,98391.63
2023-05-20T01:58:08.962Z,98391.63
2023-05-20T02:00:15.628Z,98393.25
2023-05-20T02:02:22.917Z,98383.75
2023-05-20T02:04:28.101Z,98384.78
2023-05-20T02:06:33.052Z,98384.59
2023-05-20T02:08:38.023Z,98386.47
2023-05-20T02:10:43.713Z,98374.28
2023-05-20T02:12:50.798Z,98375.69
2023-05-20T02:14:58.496Z,98383.66
2023-05-20T02:17:03.793Z,98379.25
2023-05-20T02:19:13.049Z,98380.66
2023-05-20T02:21:18.254Z,98376.13
2023-05-20T02:23:23.055Z,98378.88
2023-05-20T02:25:28.020Z,98374.84
2023-05-20T02:27:32.932Z,98371.63
2023-05-20T02:29:37.916Z,98379.59
2023-05-20T02:31:45.439Z,98371.63
2023-05-20T02:33:50.457Z,98375.66
2023-05-20T02:35:55.977Z,98370.22
2023-05-20T02:38:00.975Z,98370.97
2023-05-20T02:40:06.833Z,98378.84
2023-05-20T02:42:11.849Z,98379.22
2023-05-20T02:44:17.058Z,98379.78
2023-05-20T02:46:22.204Z,98375.66
2023-05-20T02:48:29.552Z,98385.84
2023-05-20T02:50:34.564Z,98376.44
2023-05-20T02:52:40.133Z,98379.94
2023-05-20T02:54:45.560Z,98384.44
2023-05-20T02:56:50.473Z,98388.66
2023-05-20T02:58:55.776Z,98389.50
2023-05-20T03:01:01.689Z,98393.72
2023-05-20T03:03:07.408Z,98394.47
2023-05-20T03:05:15.305Z,98388.66
2023-05-20T03:07:21.834Z,98395.84
2023-05-20T03:09:27.532Z,98386.38
2023-05-20T03:11:32.242Z,98394.50
2023-05-20T03:13:37.803Z,98398.72
2023-05-20T03:15:42.974Z,98392.38
2023-05-20T03:17:47.674Z,98396.38
2023-05-20T03:19:52.728Z,98394.78
2023-05-20T03:22:00.937Z,98401.06
2023-05-20T03:24:06.508Z,98399.84
2023-05-20T03:26:11.631Z,98400.34
2023-05-20T03:28:17.611Z,98395.94
2023-05-20T03:30:23.761Z,98401.53
2023-05-20T03:32:29.339Z,98400.78
2023-05-20T03:34:34.307Z,98402.19
2023-05-20T03:36:39.504Z,98403.91
2023-05-20T03:38:47.082Z,98402.13
2023-05-20T03:40:52.113Z,98401.34
2023-05-20T03:42:57.070Z,98399.38
2023-05-20T03:45:03.323Z,98407.44
2023-05-20T03:47:12.683Z,98407.44
2023-05-20T03:49:17.759Z,98396.59
2023-05-20T03:51:23.004Z,98403.44
2023-05-20T03:53:29.159Z,98404.28
2023-05-20T03:55:36.902Z,98391.16
2023-05-20T03:57:42.687Z,98396.22
2023-05-20T03:59:47.571Z,98398.38
2023-05-20T04:01:52.532Z,98399.03
2023-05-20T04:03:57.558Z,98393.41
2023-05-20T04:06:03.041Z,98403.19
2023-05-20T04:08:10.175Z,98406.91
2023-05-20T04:10:15.436Z,98398.13
2023-05-20T04:12:22.684Z,98405.47
2023-05-20T04:14:27.711Z,98412.84
2023-05-20T04:16:32.869Z,98404.22
2023-05-20T04:18:39.478Z,98405.94
2023-05-20T04:20:44.991Z,98397.78
2023-05-20T04:22:52.552Z,98397.97
2023-05-20T04:24:58.074Z,98402.31
2023-05-20T04:27:03.067Z,98391.66
2023-05-20T04:29:12.106Z,98395.47
2023-05-20T04:31:17.401Z,98406.91
2023-05-20T04:33:22.105Z,98390.50
2023-05-20T04:35:28.333Z,98397.72
2023-05-20T04:37:37.641Z,98396.41
2023-05-20T04:39:48.495Z,98398.44
2023-05-20T04:41:55.193Z,98398.91
2023-05-20T04:44:01.709Z,98405.41
2023-05-20T04:46:09.901Z,98396.22
2023-05-20T04:48:15.189Z,98394.19
2023-05-20T04:50:20.118Z,98396.81
2023-05-20T04:52:25.177Z,98402.34
2023-05-20T04:54:30.213Z,98398.41
2023-05-20T04:56:36.757Z,98398.63
2023-05-20T04:58:42.318Z,98398.25
2023-05-20T05:00:48.081Z,98397.78
2023-05-20T05:02:56.125Z,98400.41
2023-05-20T05:05:01.501Z,98396.47
2023-05-20T05:07:06.472Z,98400.88
2023-05-20T05:09:11.400Z,98390.38
2023-05-20T05:11:19.581Z,98386.09
2023-05-20T05:13:24.576Z,98388.41
2023-05-20T05:15:29.754Z,98382.97
2023-05-20T05:17:34.770Z,98381.19
2023-05-20T05:19:45.330Z,98378.88
2023-05-20T05:21:51.509Z,98375.09
2023-05-20T05:23:58.197Z,98377.13
2023-05-20T05:26:03.682Z,98372.50
2023-05-20T05:28:08.373Z,98370.16
2023-05-20T05:30:14.227Z,98364.06
2023-05-20T05:32:19.301Z,98365.50
2023-05-20T05:34:24.115Z,98359.41
2023-05-20T05:36:31.668Z,98356.88
2023-05-20T05:38:36.937Z,98358.75
2023-05-20T05:40:41.843Z,98361.56
2023-05-20T05:42:47.408Z,98355.34
2023-05-20T05:44:52.443Z,98356.56
2023-05-20T05:46:58.765Z,98363.97
2023-05-20T05:49:03.563Z,98353.75
2023-05-20T05:51:08.751Z,98356.69
2023-05-20T05:53:20.333Z,98363.25
2023-05-20T05:55:27.175Z,98363.81
2023-05-20T05:57:33.365Z,98365.09
2023-05-20T05:59:39.786Z,98370.72
2023-05-20T06:01:44.987Z,98362.03
2023-05-20T06:03:49.963Z,98366.41
2023-05-20T06:05:56.191Z,98360.06
2023-05-20T06:08:01.678Z,98355.88
2023-05-20T06:10:10.548Z,98353.34
2023-05-20T06:12:15.539Z,98348.22
2023-05-20T06:14:20.510Z,98342.22
2023-05-20T06:16:25.557Z,98325.81
2023-05-20T06:18:30.624Z,98319.94
2023-05-20T06:20:39.539Z,98321.63
2023-05-20T06:22:44.511Z,98326.78
2023-05-20T06:24:50.578Z,98323.81
2023-05-20T06:26:59.968Z,98322.03
2023-05-20T06:29:05.302Z,98312.34
2023-05-20T06:31:10.255Z,98316.53
2023-05-20T06:33:18.112Z,98320.88
2023-05-20T06:35:23.151Z,98321.50
2023-05-20T06:37:28.670Z,98318.88
2023-05-20T06:39:33.614Z,98321.28
2023-05-20T06:41:38.968Z,98314.66
2023-05-20T06:43:53.218Z,98317.59
2023-05-20T06:46:17.392Z,98311.06
2023-05-20T06:48:28.690Z,98307.38
2023-05-20T06:50:33.515Z,98308.88
2023-05-20T06:52:38.426Z,98313.72
2023-05-20T06:54:43.390Z,98300.97
2023-05-20T06:56:49.758Z,98304.03
2023-05-20T06:58:58.072Z,98308.38
2023-05-20T07:01:03.612Z,98309.81
2023-05-20T07:03:09.470Z,98299.06
2023-05-20T07:05:14.309Z,98295.81
2023-05-20T07:07:19.313Z,98304.97
2023-05-20T07:09:24.907Z,98305.47
2023-05-20T07:11:29.711Z,98300.75
2023-05-20T07:13:34.744Z,98301.06
2023-05-20T07:15:42.483Z,98292.66
2023-05-20T07:17:47.853Z,98289.81
2023-05-20T07:19:53.222Z,98293.38
2023-05-20T07:21:58.615Z,98295.38
2023-05-20T07:24:19.395Z,98281.84
2023-05-20T07:26:24.474Z,98288.03
2023-05-20T07:28:29.535Z,98279.56
2023-05-20T07:30:34.311Z,98277.31
2023-05-20T07:33:03.804Z,98283.16
2023-05-20T07:35:09.590Z,98275.13
2023-05-20T07:37:16.175Z,98278.50
2023-05-20T07:39:21.181Z,98269.91
2023-05-20T07:41:26.714Z,98275.91
2023-05-20T07:43:31.934Z,98275.50
2023-05-20T07:45:38.015Z,98282.84
2023-05-20T07:47:44.387Z,98268.28
2023-05-20T07:49:51.802Z,98278.13
2023-05-20T07:51:57.680Z,98271.13
2023-05-20T07:54:02.468Z,98268.72
2023-05-20T07:56:07.931Z,98260.69
2023-05-20T07:58:13.016Z,98269.09
2023-05-20T08:00:18.516Z,98268.88
2023-05-20T08:02:23.619Z,98266.84
2023-05-20T08:04:29.974Z,98268.50
2023-05-20T08:06:38.763Z,98256.91
2023-05-20T08:08:47.350Z,98267.81
2023-05-20T08:10:58.024Z,98262.31
2023-05-20T08:13:06.579Z,98262.19
2023-05-20T08:15:12.487Z,98253.66
2023-05-20T08:17:18.540Z,98258.59
2023-05-20T08:19:23.669Z,98243.94
2023-05-20T08:21:28.904Z,98248.13
2023-05-20T08:23:38.931Z,98237.47
2023-05-20T08:25:47.043Z,98235.53
2023-05-20T08:27:52.666Z,98236.03
2023-05-20T08:30:00.664Z,98232.31
2023-05-20T08:32:06.687Z,98232.56
2023-05-20T08:34:13.045Z,98233.78
2023-05-20T08:36:19.635Z,98220.88
2023-05-20T08:38:24.762Z,98226.69
2023-05-20T08:40:32.463Z,98227.00
2023-05-20T08:42:37.590Z,98229.81
2023-05-20T08:44:44.183Z,98226.41
2023-05-20T08:46:50.999Z,98225.47
2023-05-20T08:48:57.285Z,98221.78
2023-05-20T08:51:03.170Z,98220.72
2023-05-20T08:53:29.841Z,98218.72
2023-05-20T08:55:45.213Z,98216.41
2023-05-20T08:57:50.421Z,98215.97
2023-05-20T08:59:55.517Z,98217.69
2023-05-20T09:02:01.513Z,98218.66
2023-05-20T09:04:06.744Z,98216.59
2023-05-20T09:06:13.768Z,98223.78
2023-05-20T09:08:18.855Z,98221.72
2023-05-20T09:10:23.518Z,98220.56
2023-05-20T09:12:31.286Z,98219.06
2023-05-20T09:14:36.274Z,98216.34
2023-05-20T09:16:57.139Z,98228.47
2023-05-20T09:19:02.328Z,98217.19
2023-05-20T09:21:29.554Z,98226.97
2023-05-20T09:23:43.275Z,98222.34
2023-05-20T09:25:48.444Z,98228.84
2023-05-20T09:27:56.044Z,98234.34
2023-05-20T09:30:01.428Z,98228.34
2023-05-20T09:32:08.355Z,98230.09
2023-05-20T09:34:14.760Z,98220.38
2023-05-20T09:36:19.848Z,98226.00
2023-05-20T09:38:45.797Z,98218.50
2023-05-20T09:40:52.729Z,98219.22
2023-05-20T09:43:05.172Z,98215.47
2023-05-20T09:45:11.803Z,98213.97
2023-05-20T09:47:18.251Z,98216.41
2023-05-20T09:49:24.918Z,98215.69
2023-05-20T09:51:32.600Z,98211.41
2023-05-20T09:53:37.802Z,98206.41
2023-05-20T09:55:43.725Z,98213.81
2023-05-20T09:57:49.671Z,98188.16
2023-05-20T09:59:57.487Z,98197.94
2023-05-20T10:02:03.253Z,98204.63
2023-05-20T10:04:26.930Z,98195.56
2023-05-20T10:06:46.464Z,98193.47
2023-05-20T10:09:06.462Z,98192.22
2023-05-20T10:14:06.074Z,98179.69
2023-05-20T10:17:01.369Z,98181.63
2023-05-20T10:19:20.547Z,98179.09
2023-05-20T10:21:27.547Z,98167.22
2023-05-20T10:23:34.079Z,98171.13
2023-05-20T10:25:39.068Z,98179.09
2023-05-20T10:27:48.330Z,98171.56
2023-05-20T10:30:04.833Z,98166.13
2023-05-20T10:32:20.217Z,98166.50
2023-05-20T10:34:26.111Z,98167.34
2023-05-20T10:37:06.932Z,98162.47
2023-05-20T10:39:20.725Z,98163.88
2023-05-20T10:41:28.260Z,98156.88
2023-05-20T10:43:33.246Z,98157.69
2023-05-20T10:45:38.489Z,98158.41
2023-05-20T10:47:57.916Z,98154.88
2023-05-20T10:50:05.085Z,98144.63
2023-05-20T10:52:12.109Z,98150.81
2023-05-20T10:54:17.983Z,98149.00
2023-05-20T10:56:24.470Z,98147.69
2023-05-20T10:58:29.872Z,98141.72
2023-05-20T11:00:35.251Z,98148.63
2023-05-20T11:02:42.208Z,98150.75
2023-05-20T11:04:50.799Z,98151.41
2023-05-20T11:06:56.303Z,98147.03
2023-05-20T11:09:07.528Z,98138.44
2023-05-20T11:11:13.886Z,98142.84
2023-05-20T11:13:19.427Z,98134.50
2023-05-20T11:15:25.457Z,98121.91
2023-05-20T11:17:30.497Z,98125.63
2023-05-20T11:19:35.562Z,98125.63
2023-05-20T11:21:51.707Z,98128.19
2023-05-20T11:23:56.861Z,98126.19
2023-05-20T11:26:14.896Z,98118.31
2023-05-20T11:28:20.228Z,98125.19
2023-05-20T11:30:25.775Z,98116.00
2023-05-20T11:32:30.938Z,98118.41
2023-05-20T11:34:40.402Z,98117.16
2023-05-20T11:36:48.327Z,98120.25
2023-05-20T11:38:54.772Z,98113.41
2023-05-20T11:41:00.782Z,98112.69
2023-05-20T11:43:07.008Z,98115.47
2023-05-20T11:45:16.644Z,98107.19
2023-05-20T11:47:31.128Z,98097.50
2023-05-20T11:49:42.798Z,98092.50
2023-05-20T11:51:50.475Z,98094.13
2023-05-20T11:53:55.638Z,98088.19
2023-05-20T11:56:05.294Z,98100.94
2023-05-20T11:58:10.325Z,98106.69
2023-05-20T12:00:16.913Z,98104.56
2023-05-20T12:02:24.550Z,98100.75
2023-05-20T12:04:29.643Z,98098.63
2023-05-20T12:06:34.560Z,98104.00
2023-05-20T12:08:42.274Z,98097.34
2023-05-20T12:14:12.008Z,98113.66
2023-05-20T12:16:17.053Z,98106.13
2023-05-20T12:18:21.926Z,98106.72
2023-05-20T12:20:28.183Z,98091.03
2023-05-20T12:22:33.212Z,98093.63
2023-05-20T12:24:40.810Z,98095.84
2023-05-20T12:26:45.784Z,98093.63
2023-05-20T12:28:50.618Z,98098.34
2023-05-20T12:30:58.248Z,98100.00
2023-05-20T12:33:08.048Z,98102.28
2023-05-20T12:35:14.379Z,98095.66
2023-05-20T12:37:19.528Z,98103.25
2023-05-20T12:39:24.484Z,98093.06
2023-05-20T12:41:31.780Z,98109.53
2023-05-20T12:43:38.238Z,98096.19
2023-05-20T12:45:43.363Z,98099.31
2023-05-20T12:47:48.833Z,98093.38
2023-05-20T12:49:53.875Z,98096.94
2023-05-20T12:52:01.453Z,98093.13
2023-05-20T12:54:09.270Z,98093.88
2023-05-20T12:56:14.210Z,98089.31
2023-05-20T12:58:21.572Z,98084.69
2023-05-20T13:00:26.876Z,98080.97
2023-05-20T13:02:32.229Z,98084.97
2023-05-20T13:04:37.208Z,98083.22
2023-05-20T13:06:42.098Z,98084.22
2023-05-20T13:08:48.266Z,98077.50
2023-05-20T13:10:53.470Z,98075.94
2023-05-20T13:12:59.792Z,98081.09
2023-05-20T13:15:08.408Z,98079.38
2023-05-20T13:17:14.371Z,98089.06
2023-05-20T13:19:19.418Z,98077.13
2023-05-20T13:21:24.166Z,98075.44
2023-05-20T13:23:29.261Z,98077.50
2023-05-20T13:25:34.145Z,98079.50
2023-05-20T13:27:39.170Z,98087.94
2023-05-20T13:29:44.864Z,98080.66
2023-05-20T13:31:55.190Z,98078.53
2023-05-20T13:34:00.965Z,98070.72
2023-05-20T13:36:06.451Z,98071.47
2023-05-20T13:38:11.473Z,98068.25
2023-05-20T13:40:17.105Z,98065.38
2023-05-20T13:42:22.009Z,98059.34
2023-05-20T13:44:38.941Z,98061.06
2023-05-20T13:46:44.082Z,98049.31
2023-05-20T13:48:51.859Z,98055.53
2023-05-20T13:50:56.773Z,98052.41
2023-05-20T13:53:01.958Z,98047.09
2023-05-20T13:55:06.987Z,98053.94
2023-05-20T13:57:11.935Z,98056.09
2023-05-20T13:59:19.526Z,98051.84
2023-05-20T14:01:25.899Z,98045.97
2023-05-20T14:03:30.901Z,98037.72
2023-05-20T14:05:38.660Z,98033.16
2023-05-20T14:07:43.635Z,98036.81
2023-05-20T14:09:48.673Z,98037.69
2023-05-20T14:11:53.998Z,98030.84
2023-05-20T14:13:59.233Z,98017.53
2023-05-20T14:16:04.225Z,98019.34
2023-05-20T14:18:09.295Z,98016.97
2023-05-20T14:20:14.454Z,98013.00
2023-05-20T14:22:41.127Z,98000.34
2023-05-20T14:24:46.121Z,98002.81
2023-05-20T14:26:50.861Z,98001.16
2023-05-20T14:28:55.903Z,98005.00
2023-05-20T14:31:00.661Z,97996.66
2023-05-20T14:33:06.015Z,97998.22
2023-05-20T14:35:12.182Z,98000.25
2023-05-20T14:37:17.434Z,98000.78
2023-05-20T14:39:25.020Z,97999.31
2023-05-20T14:41:30.116Z,97997.66
2023-05-20T14:43:35.249Z,97998.44
2023-05-20T14:45:40.425Z,97998.25
2023-05-20T14:47:45.581Z,97993.41
2023-05-20T14:49:51.002Z,97991.44
2023-05-20T14:52:03.615Z,97983.50
2023-05-20T14:54:09.406Z,97973.22
2023-05-20T14:56:16.946Z,97976.97
2023-05-20T14:58:21.871Z,97976.66
2023-05-20T15:00:28.905Z,97975.13
2023-05-20T15:02:34.023Z,97971.66
2023-05-20T15:04:39.080Z,97974.31
2023-05-20T15:06:43.836Z,97972.84
2023-05-20T15:08:48.826Z,97971.81
2023-05-20T15:10:55.205Z,97970.09
2023-05-20T15:13:02.853Z,97971.25
2023-05-20T15:15:08.988Z,97962.47
2023-05-20T15:17:18.600Z,97964.41
2023-05-20T15:19:23.571Z,97959.44
2023-05-20T15:21:28.630Z,97956.94
2023-05-20T15:23:33.594Z,97956.28
2023-05-20T15:25:40.336Z,97953.63
2023-05-20T15:27:45.735Z,97956.97
2023-05-20T15:29:53.331Z,97959.16
2023-05-20T15:32:00.878Z,97955.53
2023-05-20T15:34:06.148Z,97941.53
2023-05-20T15:36:11.236Z,97947.28
2023-05-20T15:38:17.697Z,97938.53
2023-05-20T15:40:22.863Z,97951.31
2023-05-20T15:42:27.844Z,97951.28
2023-05-20T15:44:32.913Z,97953.94
2023-05-20T15:46:40.609Z,97947.50
2023-05-20T15:48:48.615Z,97944.69
2023-05-20T15:50:53.980Z,97935.19
2023-05-20T15:52:59.459Z,97942.34
2023-05-20T15:55:04.546Z,97943.38
2023-05-20T15:57:34.817Z,97938.38
2023-05-20T16:00:22.637Z,97936.38
2023-05-20T16:02:35.977Z,97942.88
2023-05-20T16:04:41.520Z,97936.56
2023-05-20T16:06:46.469Z,97949.25
2023-05-20T16:08:54.861Z,97938.78
2023-05-20T16:11:00.007Z,97942.63
2023-05-20T16:13:05.121Z,97941.47
2023-05-20T16:15:14.742Z,97939.16
2023-05-20T16:17:22.198Z,97946.16
2023-05-20T16:19:31.839Z,97940.00
2023-05-20T16:21:37.027Z,97942.97
2023-05-20T16:23:44.618Z,97939.16
2023-05-20T16:25:49.712Z,97942.00
2023-05-20T16:27:54.483Z,97945.50
2023-05-20T16:29:59.463Z,97944.28
2023-05-20T16:32:04.635Z,97945.59
2023-05-20T16:34:10.448Z,97946.59
2023-05-20T16:36:18.072Z,97957.91
2023-05-20T16:38:28.693Z,97951.88
2023-05-20T16:40:33.812Z,97953.91
2023-05-20T16:42:39.839Z,97963.50
2023-05-20T16:44:44.856Z,97958.84
2023-05-20T16:46:50.433Z,97954.84
2023-05-20T16:48:57.452Z,97956.00
2023-05-20T16:51:02.964Z,97957.66
2023-05-20T16:53:10.639Z,97960.50
2023-05-20T16:55:15.746Z,97959.94
2023-05-20T16:57:20.708Z,97964.63
2023-05-20T16:59:28.681Z,97962.06
2023-05-20T17:01:33.761Z,97963.22
2023-05-20T17:03:39.483Z,97954.41
2023-05-20T17:05:44.441Z,97960.41
2023-05-20T17:07:53.540Z,97958.72
2023-05-20T17:10:01.217Z,97958.41
2023-05-20T17:12:18.546Z,97958.41
2023-05-20T17:14:26.368Z,97960.16
2023-05-20T17:16:33.864Z,97959.16
2023-05-20T17:18:46.409Z,97964.66
2023-05-20T17:20:52.829Z,97963.22
2023-05-20T17:22:57.762Z,97967.84
2023-05-20T17:25:09.190Z,97966.59
2023-05-20T17:27:17.576Z,97961.13
2023-05-20T17:29:22.640Z,97952.78
2023-05-20T17:31:27.319Z,97967.84
2023-05-20T17:33:32.464Z,97961.53
2023-05-20T17:35:37.774Z,97965.19
2023-05-20T17:37:42.785Z,97966.00
2023-05-20T17:39:47.762Z,97971.72
2023-05-20T17:41:52.484Z,97971.13
2023-05-20T17:44:01.713Z,97967.78
2023-05-20T17:46:07.144Z,97964.13
2023-05-20T17:48:12.630Z,97967.41
2023-05-20T17:50:17.734Z,97973.59
2023-05-20T17:52:35.601Z,97964.91
2023-05-20T17:54:44.348Z,97970.38
2023-05-20T17:56:58.951Z,97967.88
2023-05-20T17:59:11.763Z,97970.53
2023-05-20T18:01:17.721Z,97965.28
2023-05-20T18:03:23.345Z,97973.88
2023-05-20T18:05:28.879Z,97979.19
2023-05-20T18:07:33.848Z,97970.06
2023-05-20T18:09:39.616Z,97973.66
2023-05-20T18:11:47.586Z,97974.47
2023-05-20T18:13:52.658Z,97977.31
2023-05-20T18:16:00.001Z,97976.16
2023-05-20T18:18:05.051Z,97976.94
2023-05-20T18:20:10.561Z,97975.00
2023-05-20T18:22:15.466Z,97983.50
2023-05-20T18:24:20.799Z,97982.97
2023-05-20T18:26:26.649Z,97977.16
2023-05-20T18:28:33.447Z,97981.75
2023-05-20T18:30:39.947Z,97983.75
2023-05-20T18:32:47.637Z,97983.88
2023-05-20T18:34:58.639Z,97978.72
2023-05-20T18:37:04.128Z,97976.81
2023-05-20T18:39:11.932Z,97977.97
2023-05-20T18:41:16.851Z,97980.19
2023-05-20T18:43:21.980Z,97986.63
2023-05-20T18:45:32.547Z,97988.91
2023-05-20T18:47:37.636Z,97989.19
2023-05-20T18:49:53.342Z,97981.69
2023-05-20T18:52:02.324Z,97991.19
2023-05-20T18:54:07.526Z,97985.66
2023-05-20T18:56:35.765Z,97983.47
2023-05-20T18:58:43.044Z,97992.97
2023-05-20T19:00:51.085Z,97994.38
2023-05-20T19:02:58.241Z,97996.34
2023-05-20T19:05:05.961Z,98001.69
2023-05-20T19:07:15.140Z,98005.03
2023-05-20T19:09:24.805Z,98004.63
2023-05-20T19:11:32.268Z,98011.34
2023-05-20T19:13:37.286Z,98005.63
2023-05-20T19:16:01.158Z,98004.97
2023-05-20T19:18:06.417Z,98007.88
2023-05-20T19:20:16.812Z,98007.31
2023-05-20T19:24:58.380Z,98008.16
2023-05-20T19:27:05.311Z,98005.09
2023-05-20T19:29:10.488Z,98012.50
2023-05-20T19:31:21.165Z,98005.28
2023-05-20T19:33:26.557Z,98008.50
2023-05-20T19:35:34.644Z,98016.56
2023-05-20T19:37:40.081Z,98023.16
2023-05-20T19:39:45.102Z,98016.84
2023-05-20T19:41:50.229Z,98017.84
2023-05-20T19:43:55.315Z,98020.91
2023-05-20T19:46:00.187Z,98026.06
2023-05-20T19:48:06.360Z,98027.88
2023-05-20T19:50:14.879Z,98026.50
2023-05-20T19:52:22.643Z,98027.59
2023-05-20T19:57:09.904Z,98030.94
2023-05-20T19:59:13.325Z,98029.94
2023-05-20T20:01:18.832Z,98024.66
2023-05-20T20:03:23.966Z,98024.66
2023-05-20T20:05:28.705Z,98025.75
2023-05-20T20:07:36.637Z,98032.72
2023-05-20T20:09:41.568Z,98029.38
2023-05-20T20:11:46.500Z,98028.81
2023-05-20T20:13:51.734Z,98028.94
2023-05-20T20:15:56.806Z,98027.41
2023-05-20T20:18:01.896Z,98023.50
2023-05-20T20:20:10.413Z,98022.53
2023-05-20T20:22:15.762Z,98024.75
2023-05-20T20:24:37.412Z,98022.81
2023-05-20T20:26:42.412Z,98026.41
2023-05-20T20:28:47.187Z,98028.78
2023-05-20T20:30:52.411Z,98024.31
2023-05-20T20:32:57.636Z,98030.72
2023-05-20T20:35:02.305Z,98033.19
2023-05-20T20:37:07.597Z,98027.22
2023-05-20T20:39:19.297Z,98020.94
2023-05-20T20:41:27.499Z,98024.69
2023-05-20T20:43:34.862Z,98021.22
2023-05-20T20:45:40.281Z,98026.78
2023-05-20T20:47:46.521Z,98026.06
2023-05-20T20:49:51.545Z,98021.63
2023-05-20T20:51:56.560Z,98023.56
2023-05-20T20:54:01.733Z,98022.59
2023-05-20T20:56:07.162Z,98022.75
2023-05-20T20:58:17.540Z,98019.13
2023-05-20T21:00:24.595Z,98022.88
2023-05-20T21:02:29.562Z,98021.75
2023-05-20T21:04:34.963Z,98020.22
2023-05-20T21:06:46.113Z,98020.09
2023-05-20T21:08:51.018Z,98019.38
2023-05-20T21:10:59.439Z,98014.50
2023-05-20T21:13:04.609Z,98020.06
2023-05-20T21:15:13.051Z,98003.63
2023-05-20T21:17:18.133Z,98013.75
2023-05-20T21:19:28.080Z,98015.31
2023-05-20T21:21:33.288Z,98007.53
2023-05-20T21:23:38.073Z,98015.28
2023-05-20T21:25:43.006Z,98011.81
2023-05-20T21:27:47.953Z,98015.41
2023-05-20T21:29:52.965Z,98017.38
2023-05-20T21:32:00.243Z,98009.81
2023-05-20T21:34:08.109Z,98011.34
2023-05-20T21:36:12.795Z,98007.28
2023-05-20T21:38:17.836Z,98006.69
2023-05-20T21:40:23.040Z,98003.22
2023-05-20T21:42:27.782Z,98011.16
2023-05-20T21:44:32.925Z,98005.03
2023-05-20T21:46:37.737Z,98008.06
2023-05-20T21:48:45.326Z,98011.69
2023-05-20T21:50:50.426Z,98010.59
2023-05-20T21:52:55.130Z,98016.53
2023-05-20T21:55:00.044Z,98014.16
2023-05-20T21:57:05.514Z,98017.78
2023-05-20T21:59:10.428Z,98011.50
2023-05-20T22:01:15.383Z,98011.38
2023-05-20T22:03:20.408Z,98007.31
2023-05-20T22:05:27.789Z,98008.81
2023-05-20T22:07:33.190Z,98011.84
2023-05-20T22:09:38.357Z,98006.28
2023-05-20T22:11:45.354Z,98010.75
2023-05-20T22:13:52.971Z,98014.22
2023-05-20T22:15:58.315Z,98008.25
2023-05-20T22:18:07.658Z,98012.94
2023-05-20T22:20:34.126Z,98004.19
2023-05-20T22:22:39.393Z,97996.78
2023-05-20T22:24:46.851Z,97995.94
2023-05-20T22:26:51.918Z,97995.63
2023-05-20T22:28:56.638Z,97993.63
2023-05-20T22:31:01.694Z,97993.63
2023-05-20T22:33:06.538Z,97992.25
2023-05-20T22:35:13.449Z,97988.31
2023-05-20T22:37:21.039Z,97987.44
2023-05-20T22:39:26.012Z,97986.50
2023-05-20T22:41:31.073Z,97988.31
2023-05-20T22:43:36.765Z,97989.50
2023-05-20T22:45:41.895Z,97990.34
2023-05-20T22:47:46.726Z,97980.88
2023-05-20T22:49:51.801Z,97979.78
2023-05-20T22:51:56.928Z,97980.66
2023-05-20T22:54:04.465Z,97977.75
2023-05-20T22:56:11.760Z,97978.69
2023-05-20T22:58:19.447Z,97973.41
2023-05-20T23:00:24.950Z,97969.81
2023-05-20T23:02:30.733Z,97967.16
2023-05-20T23:04:35.797Z,97969.09
2023-05-20T23:06:40.542Z,97966.72
2023-05-20T23:08:45.649Z,97961.56
2023-05-20T23:10:52.950Z,97968.19
2023-05-20T23:12:57.882Z,97960.53
2023-05-20T23:15:02.880Z,97964.13
2023-05-20T23:17:08.082Z,97964.97
2023-05-20T23:19:13.142Z,97973.28
2023-05-20T23:21:17.851Z,97964.16
2023-05-20T23:23:30.385Z,97968.34
2023-05-20T23:25:37.062Z,97965.00
2023-05-20T23:27:44.746Z,97957.06
2023-05-20T23:29:49.785Z,97958.78
2023-05-20T23:31:54.665Z,97956.97
2023-05-20T23:34:00.091Z,97949.03
2023-05-20T23:36:05.034Z,97955.03
2023-05-20T23:38:10.360Z,97964.06
2023-05-20T23:40:16.497Z,97964.41
2023-05-20T23:42:21.578Z,97959.13
2023-05-20T23:44:29.274Z,97957.06
2023-05-20T23:46:34.629Z,97959.88
2023-05-20T23:48:39.774Z,97958.06
2023-05-20T23:50:44.489Z,97956.75
2023-05-20T23:52:49.574Z,97965.25
2023-05-20T23:54:56.481Z,97966.69
2023-05-20T23:57:01.466Z,97958.63
2023-05-20T23:59:06.733Z,97964.31
